Time,TemperatureF,DewpointF,PressureIn,WindDirection,WindDirectionDegrees,WindSpeedMPH,WindSpeedGustMPH,Humidity,HourlyPrecipIn,Conditions,Clouds,dailyrainin,SoftwareType,DateUTC
2013-03-08 00:00:00,42.4,23.5,29.89,North,0,0.0,0.0,47,0.00,,,0.00,WUHU216HW,2013-03-08 08:00:00,
2013-03-08 00:05:00,42.4,23.5,29.89,North,0,0.0,0.0,47,0.00,,,0.00,WUHU216HW,2013-03-08 08:05:00,
2013-03-08 00:10:00,42.6,24.2,29.89,North,0,0.0,0.0,48,0.00,,,0.00,WUHU216HW,2013-03-08 08:10:00,
2013-03-08 00:15:00,42.6,23.7,29.89,North,0,0.0,0.0,47,0.00,,,0.00,WUHU216HW,2013-03-08 08:15:00,
2013-03-08 00:20:00,42.7,24.8,29.89,North,0,0.0,0.0,49,0.00,,,0.00,WUHU216HW,2013-03-08 08:20:00,
2013-03-08 00:25:00,42.7,24.3,29.89,North,0,0.0,0.0,48,0.00,,,0.00,WUHU216HW,2013-03-08 08:25:00,
2013-03-08 00:30:00,42.7,24.8,29.89,North,0,0.0,0.0,49,0.00,,,0.00,WUHU216HW,2013-03-08 08:30:00,
2013-03-08 00:36:00,42.7,24.3,29.89,North,0,0.0,0.0,48,0.00,,,0.00,WUHU216HW,2013-03-08 08:36:00,
2013-03-08 00:41:00,42.4,24.5,29.89,North,0,0.0,0.0,49,0.00,,,0.00,WUHU216HW,2013-03-08 08:41:00,
2013-03-08 00:46:00,42.7,24.8,29.89,North,0,0.0,0.0,49,0.00,,,0.00,WUHU216HW,2013-03-08 08:46:00,
2013-03-08 00:51:00,42.7,23.7,29.89,North,0,0.0,0.0,47,0.00,,,0.00,WUHU216HW,2013-03-08 08:51:00,
2013-03-08 00:56:00,42.6,25.2,29.88,North,0,0.0,0.0,50,0.00,,,0.00,WUHU216HW,2013-03-08 08:56:00,
2013-03-08 01:01:00,42.5,25.2,29.89,North,0,0.0,0.0,50,0.00,,,0.00,WUHU216HW,2013-03-08 09:01:00,
2013-03-08 01:06:00,42.5,25.2,29.89,North,0,0.0,0.0,50,0.00,,,0.00,WUHU216HW,2013-03-08 09:06:00,
2013-03-08 01:11:00,42.5,25.6,29.89,North,0,0.0,0.0,51,0.00,,,0.00,WUHU216HW,2013-03-08 09:11:00,
2013-03-08 01:16:00,42.6,25.2,29.89,North,0,0.0,0.0,50,0.00,,,0.00,WUHU216HW,2013-03-08 09:16:00,
2013-03-08 01:21:00,42.5,25.1,29.88,North,0,0.0,0.0,50,0.00,,,0.00,WUHU216HW,2013-03-08 09:21:00,
2013-03-08 01:26:00,42.5,25.6,29.88,North,0,0.0,0.0,51,0.00,,,0.00,WUHU216HW,2013-03-08 09:26:00,
2013-03-08 01:32:00,42.5,26.1,29.88,North,0,0.0,0.0,52,0.00,,,0.00,WUHU216HW,2013-03-08 09:32:00,
2013-03-08 01:37:00,42.5,25.6,29.88,North,0,0.0,0.0,51,0.00,,,0.00,WUHU216HW,2013-03-08 09:37:00,
2013-03-08 01:42:00,42.5,25.1,29.88,North,0,0.0,0.0,50,0.00,,,0.00,WUHU216HW,2013-03-08 09:42:00,
2013-03-08 01:47:00,42.5,25.1,29.88,North,0,0.0,0.0,50,0.00,,,0.00,WUHU216HW,2013-03-08 09:47:00,
2013-03-08 01:52:00,42.3,25.4,29.88,North,0,0.0,0.0,51,0.00,,,0.00,WUHU216HW,2013-03-08 09:52:00,
2013-03-08 01:57:00,42.3,24.9,29.88,North,0,0.0,0.0,50,0.00,,,0.00,WUHU216HW,2013-03-08 09:57:00,
2013-03-08 02:02:00,42.3,25.4,29.88,North,0,0.0,0.0,51,0.00,,,0.00,WUHU216HW,2013-03-08 10:02:00,
2013-03-08 02:07:00,42.1,24.7,29.88,North,0,0.0,0.0,50,0.00,,,0.00,WUHU216HW,2013-03-08 10:07:00,
2013-03-08 02:12:00,42.3,25.4,29.88,North,0,0.0,0.0,51,0.00,,,0.00,WUHU216HW,2013-03-08 10:12:00,
2013-03-08 02:18:00,42.1,24.2,29.88,North,0,0.0,0.0,49,0.00,,,0.00,WUHU216HW,2013-03-08 10:18:00,
2013-03-08 02:23:00,41.9,24.6,29.88,North,0,0.0,0.0,50,0.00,,,0.00,WUHU216HW,2013-03-08 10:23:00,
2013-03-08 02:28:00,41.9,24.6,29.88,North,0,0.0,0.0,50,0.00,,,0.00,WUHU216HW,2013-03-08 10:28:00,
2013-03-08 02:33:00,41.7,23.9,29.87,North,0,0.0,0.0,49,0.00,,,0.00,WUHU216HW,2013-03-08 10:33:00,
2013-03-08 02:38:00,41.4,23.6,29.87,North,0,0.0,0.0,49,0.00,,,0.00,WUHU216HW,2013-03-08 10:38:00,
2013-03-08 02:43:00,41.6,23.8,29.87,North,0,0.0,0.0,49,0.00,,,0.00,WUHU216HW,2013-03-08 10:43:00,
2013-03-08 02:48:00,41.7,23.9,29.87,North,0,0.0,0.0,49,0.00,,,0.00,WUHU216HW,2013-03-08 10:48:00,
2013-03-08 02:53:00,41.9,24.1,29.87,North,0,0.0,0.0,49,0.00,,,0.00,WUHU216HW,2013-03-08 10:53:00,
2013-03-08 02:58:00,41.9,24.1,29.86,North,0,0.0,0.0,49,0.00,,,0.00,WUHU216HW,2013-03-08 10:58:00,
2013-03-08 03:03:00,41.9,24.6,29.86,North,0,0.0,0.0,50,0.00,,,0.00,WUHU216HW,2013-03-08 11:03:00,
2013-03-08 03:08:00,41.6,23.8,29.86,North,0,0.0,0.0,49,0.00,,,0.00,WUHU216HW,2013-03-08 11:08:00,
2013-03-08 03:14:00,41.6,23.8,29.86,North,0,0.0,0.0,49,0.00,,,0.00,WUHU216HW,2013-03-08 11:14:00,
2013-03-08 03:19:00,41.7,23.9,29.86,North,0,0.0,0.0,49,0.00,,,0.00,WUHU216HW,2013-03-08 11:19:00,
2013-03-08 03:24:00,41.7,24.4,29.86,North,0,0.0,0.0,50,0.00,,,0.00,WUHU216HW,2013-03-08 11:24:00,
2013-03-08 03:29:00,41.9,24.6,29.86,North,0,0.0,0.0,50,0.00,,,0.00,WUHU216HW,2013-03-08 11:29:00,
2013-03-08 03:34:00,41.7,24.4,29.85,North,0,0.0,0.0,50,0.00,,,0.00,WUHU216HW,2013-03-08 11:34:00,
2013-03-08 03:39:00,41.8,24.4,29.85,North,0,0.0,0.0,50,0.00,,,0.00,WUHU216HW,2013-03-08 11:39:00,
2013-03-08 03:44:00,41.7,24.3,29.85,North,0,0.0,0.0,50,0.00,,,0.00,WUHU216HW,2013-03-08 11:44:00,
2013-03-08 03:49:00,41.7,23.8,29.85,North,0,0.0,0.0,49,0.00,,,0.00,WUHU216HW,2013-03-08 11:49:00,
2013-03-08 03:54:00,41.3,24.5,29.85,North,0,0.0,0.0,51,0.00,,,0.00,WUHU216HW,2013-03-08 11:54:00,
2013-03-08 03:59:00,41.5,24.2,29.85,North,0,0.0,0.0,50,0.00,,,0.00,WUHU216HW,2013-03-08 11:59:00,
2013-03-08 04:04:00,41.7,24.4,29.86,North,0,0.0,0.0,50,0.00,,,0.00,WUHU216HW,2013-03-08 12:04:00,
2013-03-08 04:09:00,41.7,24.9,29.85,North,0,0.0,0.0,51,0.00,,,0.00,WUHU216HW,2013-03-08 12:09:00,
2013-03-08 04:15:00,41.5,24.2,29.85,North,0,0.0,0.0,50,0.00,,,0.00,WUHU216HW,2013-03-08 12:15:00,
2013-03-08 04:20:00,41.3,23.5,29.85,North,0,0.0,0.0,49,0.00,,,0.00,WUHU216HW,2013-03-08 12:20:00,
2013-03-08 04:25:00,41.5,24.2,29.85,North,0,0.0,0.0,50,0.00,,,0.00,WUHU216HW,2013-03-08 12:25:00,
2013-03-08 04:30:00,41.7,24.4,29.85,North,0,0.0,0.0,50,0.00,,,0.00,WUHU216HW,2013-03-08 12:30:00,
2013-03-08 04:35:00,41.8,23.9,29.85,North,0,0.0,0.0,49,0.00,,,0.00,WUHU216HW,2013-03-08 12:35:00,
2013-03-08 04:40:00,41.6,24.2,29.85,North,0,0.0,0.0,50,0.00,,,0.00,WUHU216HW,2013-03-08 12:40:00,
2013-03-08 04:45:00,41.2,24.4,29.85,North,0,0.0,0.0,51,0.00,,,0.00,WUHU216HW,2013-03-08 12:45:00,
2013-03-08 04:50:00,41.0,23.2,29.85,North,0,0.0,0.0,49,0.00,,,0.00,WUHU216HW,2013-03-08 12:50:00,
2013-03-08 04:55:00,40.7,22.9,29.85,North,0,0.0,0.0,49,0.00,,,0.00,WUHU216HW,2013-03-08 12:55:00,
2013-03-08 05:00:00,40.5,21.8,29.85,North,0,0.0,0.0,47,0.00,,,0.00,WUHU216HW,2013-03-08 13:00:00,
2013-03-08 05:05:00,40.3,23.6,29.86,North,0,0.0,0.0,51,0.00,,,0.00,WUHU216HW,2013-03-08 13:05:00,
2013-03-08 05:10:00,40.7,22.5,29.85,North,0,0.0,0.0,48,0.00,,,0.00,WUHU216HW,2013-03-08 13:10:00,
2013-03-08 05:15:00,40.9,22.2,29.85,North,0,0.0,0.0,47,0.00,,,0.00,WUHU216HW,2013-03-08 13:15:00,
2013-03-08 05:20:00,41.0,22.2,29.85,North,0,0.0,0.0,47,0.00,,,0.00,WUHU216HW,2013-03-08 13:20:00,
2013-03-08 05:25:00,40.6,21.8,29.85,North,0,0.0,0.0,47,0.00,,,0.00,WUHU216HW,2013-03-08 13:25:00,
2013-03-08 05:30:00,40.4,22.2,29.85,North,0,0.0,0.0,48,0.00,,,0.00,WUHU216HW,2013-03-08 13:30:00,
2013-03-08 05:35:00,40.4,22.7,29.86,North,0,0.0,0.0,49,0.00,,,0.00,WUHU216HW,2013-03-08 13:35:00,
2013-03-08 05:41:00,40.6,22.9,29.86,North,0,0.0,0.0,49,0.00,,,0.00,WUHU216HW,2013-03-08 13:41:00,
2013-03-08 05:46:00,40.4,22.2,29.86,North,0,0.0,0.0,48,0.00,,,0.00,WUHU216HW,2013-03-08 13:46:00,
2013-03-08 05:51:00,40.6,23.4,29.86,North,0,0.0,0.0,50,0.00,,,0.00,WUHU216HW,2013-03-08 13:51:00,
2013-03-08 05:56:00,40.9,21.6,29.86,North,0,0.0,0.0,46,0.00,,,0.00,WUHU216HW,2013-03-08 13:56:00,
2013-03-08 06:01:00,40.9,23.1,29.86,North,0,0.0,0.0,49,0.00,,,0.00,WUHU216HW,2013-03-08 14:01:00,
2013-03-08 06:06:00,40.9,23.1,29.86,North,0,0.0,0.0,49,0.00,,,0.00,WUHU216HW,2013-03-08 14:06:00,
2013-03-08 06:11:00,40.7,23.0,29.86,North,0,0.0,0.0,49,0.00,,,0.00,WUHU216HW,2013-03-08 14:11:00,
2013-03-08 06:16:00,40.9,23.2,29.86,North,0,0.0,0.0,49,0.00,,,0.00,WUHU216HW,2013-03-08 14:16:00,
2013-03-08 06:22:00,41.1,24.3,29.86,North,0,0.0,0.0,51,0.00,,,0.00,WUHU216HW,2013-03-08 14:22:00,
2013-03-08 06:27:00,41.0,23.7,29.86,North,0,0.0,0.0,50,0.00,,,0.00,WUHU216HW,2013-03-08 14:27:00,
2013-03-08 06:32:00,41.3,24.0,29.86,North,0,0.0,0.0,50,0.00,,,0.00,WUHU216HW,2013-03-08 14:32:00,
2013-03-08 06:37:00,41.3,25.4,29.86,North,0,0.0,0.0,53,0.00,,,0.00,WUHU216HW,2013-03-08 14:37:00,
2013-03-08 06:42:00,41.7,24.4,29.86,North,0,0.0,0.0,50,0.00,,,0.00,WUHU216HW,2013-03-08 14:42:00,
2013-03-08 06:47:00,41.9,26.0,29.86,North,0,0.0,0.0,53,0.00,,,0.00,WUHU216HW,2013-03-08 14:47:00,
2013-03-08 06:52:00,42.2,25.3,29.86,North,0,0.0,0.0,51,0.00,,,0.00,WUHU216HW,2013-03-08 14:52:00,
2013-03-08 06:57:00,42.5,26.1,29.86,North,0,0.0,0.0,52,0.00,,,0.00,WUHU216HW,2013-03-08 14:57:00,
2013-03-08 07:02:00,42.7,26.7,29.86,North,0,0.0,0.0,53,0.00,,,0.00,WUHU216HW,2013-03-08 15:02:00,
2013-03-08 07:07:00,42.9,26.9,29.86,North,0,0.0,0.0,53,0.00,,,0.00,WUHU216HW,2013-03-08 15:07:00,
2013-03-08 07:12:00,43.1,27.1,29.86,North,0,0.0,0.0,53,0.00,,,0.00,WUHU216HW,2013-03-08 15:12:00,
2013-03-08 07:18:00,43.2,27.3,29.86,North,0,0.0,0.0,53,0.00,,,0.00,WUHU216HW,2013-03-08 15:18:00,
2013-03-08 07:23:00,43.2,27.2,29.86,North,0,0.0,0.0,53,0.00,,,0.00,WUHU216HW,2013-03-08 15:23:00,
2013-03-08 07:28:00,42.8,26.8,29.87,North,0,0.0,0.0,53,0.00,,,0.00,WUHU216HW,2013-03-08 15:28:00,
2013-03-08 07:33:00,42.8,27.3,29.87,North,0,0.0,0.0,54,0.00,,,0.00,WUHU216HW,2013-03-08 15:33:00,
2013-03-08 07:38:00,42.8,27.3,29.87,North,0,0.0,0.0,54,0.00,,,0.00,WUHU216HW,2013-03-08 15:38:00,
2013-03-08 07:43:00,42.8,25.9,29.87,North,0,0.0,0.0,51,0.00,,,0.00,WUHU216HW,2013-03-08 15:43:00,
2013-03-08 07:48:00,42.9,27.4,29.87,North,0,0.0,0.0,54,0.00,,,0.00,WUHU216HW,2013-03-08 15:48:00,
2013-03-08 07:53:00,43.4,27.4,29.87,North,0,0.0,0.0,53,0.00,,,0.00,WUHU216HW,2013-03-08 15:53:00,
2013-03-08 07:58:00,44.2,28.2,29.87,North,0,0.0,0.0,53,0.00,,,0.00,WUHU216HW,2013-03-08 15:58:00,
2013-03-08 08:03:00,44.9,28.8,29.87,North,0,0.0,0.0,53,0.00,,,0.00,WUHU216HW,2013-03-08 16:03:00,
2013-03-08 08:08:00,45.4,28.8,29.87,North,0,0.0,0.0,52,0.00,,,0.00,WUHU216HW,2013-03-08 16:08:00,
2013-03-08 08:14:00,46.1,29.9,29.87,North,0,0.0,0.0,53,0.00,,,0.00,WUHU216HW,2013-03-08 16:14:00,
2013-03-08 08:19:00,46.6,29.9,29.88,North,0,0.0,0.0,52,0.00,,,0.00,WUHU216HW,2013-03-08 16:19:00,
2013-03-08 08:24:00,47.1,30.4,29.88,North,0,0.0,0.0,52,0.00,,,0.00,WUHU216HW,2013-03-08 16:24:00,
2013-03-08 08:29:00,47.5,30.8,29.88,North,0,0.0,0.0,52,0.00,,,0.00,WUHU216HW,2013-03-08 16:29:00,
2013-03-08 08:34:00,47.9,31.2,29.88,North,0,0.0,0.0,52,0.00,,,0.00,WUHU216HW,2013-03-08 16:34:00,
2013-03-08 08:39:00,48.1,31.3,29.89,North,0,0.0,0.0,52,0.00,,,0.00,WUHU216HW,2013-03-08 16:39:00,
2013-03-08 08:44:00,48.3,31.5,29.89,North,0,0.0,0.0,52,0.00,,,0.00,WUHU216HW,2013-03-08 16:44:00,
2013-03-08 08:49:00,48.9,31.6,29.89,North,0,0.0,0.0,51,0.00,,,0.00,WUHU216HW,2013-03-08 16:49:00,
2013-03-08 08:54:00,49.2,31.9,29.89,North,0,0.0,0.0,51,0.00,,,0.00,WUHU216HW,2013-03-08 16:54:00,
2013-03-08 08:59:00,49.5,32.6,29.89,North,0,0.0,0.0,52,0.00,,,0.00,WUHU216HW,2013-03-08 16:59:00,
2013-03-08 09:04:00,49.9,31.9,29.89,North,0,0.0,0.0,50,0.00,,,0.00,WUHU216HW,2013-03-08 17:04:00,
2013-03-08 09:09:00,50.2,32.7,29.89,North,0,0.0,0.0,51,0.00,,,0.00,WUHU216HW,2013-03-08 17:09:00,
2013-03-08 09:14:00,50.6,33.1,29.89,North,0,0.0,0.0,51,0.00,,,0.00,WUHU216HW,2013-03-08 17:14:00,
2013-03-08 09:19:00,50.9,32.4,29.89,North,0,0.0,0.0,49,0.00,,,0.00,WUHU216HW,2013-03-08 17:19:00,
2013-03-08 09:24:00,51.6,33.5,29.90,North,0,0.0,0.0,50,0.00,,,0.00,WUHU216HW,2013-03-08 17:24:00,
2013-03-08 09:29:00,51.8,32.7,29.90,North,0,0.0,0.0,48,0.00,,,0.00,WUHU216HW,2013-03-08 17:29:00,
2013-03-08 09:34:00,52.1,33.5,29.90,North,0,0.0,0.0,49,0.00,,,0.00,WUHU216HW,2013-03-08 17:34:00,
2013-03-08 09:39:00,52.5,33.9,29.90,North,0,0.0,0.0,49,0.00,,,0.00,WUHU216HW,2013-03-08 17:39:00,
2013-03-08 09:45:00,52.7,31.3,29.90,North,0,0.0,0.0,44,0.00,,,0.00,WUHU216HW,2013-03-08 17:45:00,
2013-03-08 09:50:00,52.9,33.1,29.90,North,0,0.0,0.0,47,0.00,,,0.00,WUHU216HW,2013-03-08 17:50:00,
2013-03-08 09:55:00,53.1,34.4,29.90,North,0,0.0,0.0,49,0.00,,,0.00,WUHU216HW,2013-03-08 17:55:00,
2013-03-08 10:00:00,52.9,34.8,29.90,North,0,0.0,0.0,50,0.00,,,0.00,WUHU216HW,2013-03-08 18:00:00,
2013-03-08 10:05:00,52.6,35.0,29.90,North,0,0.0,0.0,51,0.00,,,0.00,WUHU216HW,2013-03-08 18:05:00,
2013-03-08 10:10:00,52.0,34.4,29.90,North,0,0.0,0.0,51,0.00,,,0.00,WUHU216HW,2013-03-08 18:10:00,
2013-03-08 10:15:00,52.9,34.7,29.90,North,0,0.0,0.0,50,0.00,,,0.00,WUHU216HW,2013-03-08 18:15:00,
2013-03-08 10:20:00,52.3,34.2,29.90,North,0,0.0,0.0,50,0.00,,,0.00,WUHU216HW,2013-03-08 18:20:00,
2013-03-08 10:25:00,52.0,34.4,29.90,North,0,0.0,0.0,51,0.00,,,0.00,WUHU216HW,2013-03-08 18:25:00,
2013-03-08 10:30:00,51.6,33.6,29.90,North,0,0.0,0.0,50,0.00,,,0.00,WUHU216HW,2013-03-08 18:30:00,
2013-03-08 10:35:00,51.3,33.7,29.90,North,0,0.0,0.0,51,0.00,,,0.00,WUHU216HW,2013-03-08 18:35:00,
2013-03-08 10:40:00,51.5,33.4,29.90,North,0,0.0,0.0,50,0.00,,,0.00,WUHU216HW,2013-03-08 18:40:00,
2013-03-08 10:45:00,51.3,33.8,29.90,North,0,0.0,0.0,51,0.00,,,0.00,WUHU216HW,2013-03-08 18:45:00,
2013-03-08 10:50:00,51.5,34.0,29.90,North,0,0.0,0.0,51,0.00,,,0.00,WUHU216HW,2013-03-08 18:50:00,
2013-03-08 10:56:00,51.7,34.2,29.90,North,0,0.0,0.0,51,0.00,,,0.00,WUHU216HW,2013-03-08 18:56:00,
2013-03-08 11:01:00,51.6,34.5,29.90,North,0,0.0,0.0,52,0.00,,,0.00,WUHU216HW,2013-03-08 19:01:00,
2013-03-08 11:06:00,51.6,34.0,29.90,North,0,0.0,0.0,51,0.00,,,0.00,WUHU216HW,2013-03-08 19:06:00,
2013-03-08 11:11:00,51.4,33.9,29.90,North,0,0.0,0.0,51,0.00,,,0.00,WUHU216HW,2013-03-08 19:11:00,
2013-03-08 11:16:00,51.4,33.9,29.90,North,0,0.0,0.0,51,0.00,,,0.00,WUHU216HW,2013-03-08 19:16:00,
2013-03-08 11:21:00,51.4,33.9,29.90,North,0,0.0,0.0,51,0.00,,,0.00,WUHU216HW,2013-03-08 19:21:00,
2013-03-08 11:26:00,51.8,34.3,29.90,North,0,0.0,0.0,51,0.00,,,0.00,WUHU216HW,2013-03-08 19:26:00,
2013-03-08 11:31:00,51.9,34.3,29.90,North,0,0.0,0.0,51,0.00,,,0.00,WUHU216HW,2013-03-08 19:31:00,
2013-03-08 11:36:00,52.1,34.0,29.90,North,0,0.0,0.0,50,0.00,,,0.00,WUHU216HW,2013-03-08 19:36:00,
2013-03-08 11:41:00,52.4,34.3,29.90,North,0,0.0,0.0,50,0.00,,,0.00,WUHU216HW,2013-03-08 19:41:00,
2013-03-08 11:46:00,52.6,35.0,29.90,North,0,0.0,0.0,51,0.00,,,0.00,WUHU216HW,2013-03-08 19:46:00,
2013-03-08 11:51:00,52.6,35.0,29.90,North,0,0.0,0.0,51,0.00,,,0.00,WUHU216HW,2013-03-08 19:51:00,
2013-03-08 11:56:00,52.6,34.0,29.90,North,0,0.0,0.0,49,0.00,,,0.00,WUHU216HW,2013-03-08 19:56:00,
2013-03-08 12:01:00,53.4,35.7,29.90,North,0,0.0,0.0,51,0.00,,,0.00,WUHU216HW,2013-03-08 20:01:00,
2013-03-08 12:07:00,54.0,35.7,29.90,North,0,0.0,0.0,50,0.00,,,0.00,WUHU216HW,2013-03-08 20:07:00,
2013-03-08 12:12:00,54.0,36.3,29.90,North,0,0.0,0.0,51,0.00,,,0.00,WUHU216HW,2013-03-08 20:12:00,
2013-03-08 12:17:00,54.3,36.0,29.90,North,0,0.0,0.0,50,0.00,,,0.00,WUHU216HW,2013-03-08 20:17:00,
2013-03-08 12:22:00,54.5,36.2,29.90,North,0,0.0,0.0,50,0.00,,,0.00,WUHU216HW,2013-03-08 20:22:00,
2013-03-08 12:27:00,55.2,36.9,29.90,North,0,0.0,0.0,50,0.00,,,0.00,WUHU216HW,2013-03-08 20:27:00,
2013-03-08 12:32:00,54.9,36.6,29.90,North,0,0.0,0.0,50,0.00,,,0.00,WUHU216HW,2013-03-08 20:32:00,
2013-03-08 12:37:00,54.7,36.4,29.90,North,0,0.0,0.0,50,0.00,,,0.00,WUHU216HW,2013-03-08 20:37:00,
2013-03-08 12:42:00,54.6,36.3,29.89,North,0,0.0,0.0,50,0.00,,,0.00,WUHU216HW,2013-03-08 20:42:00,
2013-03-08 12:47:00,54.3,36.5,29.90,North,0,0.0,0.0,51,0.00,,,0.00,WUHU216HW,2013-03-08 20:47:00,
2013-03-08 12:52:00,54.1,35.8,29.89,North,0,0.0,0.0,50,0.00,,,0.00,WUHU216HW,2013-03-08 20:52:00,
2013-03-08 12:57:00,53.9,36.2,29.89,North,0,0.0,0.0,51,0.00,,,0.00,WUHU216HW,2013-03-08 20:57:00,
2013-03-08 13:02:00,54.3,36.6,29.89,North,0,0.0,0.0,51,0.00,,,0.00,WUHU216HW,2013-03-08 21:02:00,
2013-03-08 13:07:00,54.6,36.8,29.89,North,0,0.0,0.0,51,0.00,,,0.00,WUHU216HW,2013-03-08 21:07:00,
2013-03-08 13:12:00,55.2,37.4,29.89,North,0,0.0,0.0,51,0.00,,,0.00,WUHU216HW,2013-03-08 21:12:00,
2013-03-08 13:17:00,55.3,37.0,29.89,North,0,0.0,0.0,50,0.00,,,0.00,WUHU216HW,2013-03-08 21:17:00,
2013-03-08 13:22:00,55.7,37.4,29.89,North,0,0.0,0.0,50,0.00,,,0.00,WUHU216HW,2013-03-08 21:22:00,
2013-03-08 13:27:00,55.7,37.4,29.89,North,0,0.0,0.0,50,0.00,,,0.00,WUHU216HW,2013-03-08 21:27:00,
2013-03-08 13:32:00,55.3,37.0,29.89,North,0,0.0,0.0,50,0.00,,,0.00,WUHU216HW,2013-03-08 21:32:00,
2013-03-08 13:37:00,55.6,37.2,29.88,North,0,0.0,0.0,50,0.00,,,0.00,WUHU216HW,2013-03-08 21:37:00,
2013-03-08 13:42:00,56.0,37.6,29.88,North,0,0.0,0.0,50,0.00,,,0.00,WUHU216HW,2013-03-08 21:42:00,
2013-03-08 13:48:00,56.2,37.8,29.88,North,0,0.0,0.0,50,0.00,,,0.00,WUHU216HW,2013-03-08 21:48:00,
2013-03-08 13:53:00,56.2,37.8,29.88,North,0,0.0,0.0,50,0.00,,,0.00,WUHU216HW,2013-03-08 21:53:00,
2013-03-08 13:58:00,56.3,37.9,29.88,North,0,0.0,0.0,50,0.00,,,0.00,WUHU216HW,2013-03-08 21:58:00,
2013-03-08 14:03:00,56.5,38.1,29.87,North,0,0.0,0.0,50,0.00,,,0.00,WUHU216HW,2013-03-08 22:03:00,
2013-03-08 14:08:00,56.9,38.4,29.88,North,0,0.0,0.0,50,0.00,,,0.00,WUHU216HW,2013-03-08 22:08:00,
2013-03-08 14:13:00,56.9,38.4,29.88,North,0,0.0,0.0,50,0.00,,,0.00,WUHU216HW,2013-03-08 22:13:00,
2013-03-08 14:18:00,57.4,38.9,29.88,North,0,0.0,0.0,50,0.00,,,0.00,WUHU216HW,2013-03-08 22:18:00,
2013-03-08 14:23:00,58.5,39.9,29.88,North,0,0.0,0.0,50,0.00,,,0.00,WUHU216HW,2013-03-08 22:23:00,
2013-03-08 14:28:00,58.7,40.1,29.88,North,0,0.0,0.0,50,0.00,,,0.00,WUHU216HW,2013-03-08 22:28:00,
2013-03-08 14:33:00,59.2,40.0,29.88,North,0,0.0,0.0,49,0.00,,,0.00,WUHU216HW,2013-03-08 22:33:00,
2013-03-08 14:38:00,59.4,40.2,29.88,North,0,0.0,0.0,49,0.00,,,0.00,WUHU216HW,2013-03-08 22:38:00,
2013-03-08 14:43:00,59.2,40.0,29.88,North,0,0.0,0.0,49,0.00,,,0.00,WUHU216HW,2013-03-08 22:43:00,
2013-03-08 14:48:00,58.5,38.8,29.88,North,0,0.0,0.0,48,0.00,,,0.00,WUHU216HW,2013-03-08 22:48:00,
2013-03-08 14:53:00,58.7,39.0,29.88,North,0,0.0,0.0,48,0.00,,,0.00,WUHU216HW,2013-03-08 22:53:00,
2013-03-08 14:58:00,58.1,39.6,29.88,North,0,0.0,0.0,50,0.00,,,0.00,WUHU216HW,2013-03-08 22:58:00,
2013-03-08 15:03:00,58.1,39.0,29.88,North,0,0.0,0.0,49,0.00,,,0.00,WUHU216HW,2013-03-08 23:03:00,
2013-03-08 15:08:00,58.0,39.5,29.88,North,0,0.0,0.0,50,0.00,,,0.00,WUHU216HW,2013-03-08 23:08:00,
2013-03-08 15:13:00,57.8,39.3,29.89,North,0,0.0,0.0,50,0.00,,,0.00,WUHU216HW,2013-03-08 23:13:00,
2013-03-08 15:18:00,57.4,38.9,29.88,North,0,0.0,0.0,50,0.00,,,0.00,WUHU216HW,2013-03-08 23:18:00,
2013-03-08 15:23:00,57.4,38.9,29.89,North,0,0.0,0.0,50,0.00,,,0.00,WUHU216HW,2013-03-08 23:23:00,
2013-03-08 15:29:00,57.4,38.9,29.88,North,0,0.0,0.0,50,0.00,,,0.00,WUHU216HW,2013-03-08 23:29:00,
2013-03-08 15:34:00,57.1,38.6,29.89,North,0,0.0,0.0,50,0.00,,,0.00,WUHU216HW,2013-03-08 23:34:00,
2013-03-08 15:39:00,57.1,38.6,29.88,North,0,0.0,0.0,50,0.00,,,0.00,WUHU216HW,2013-03-08 23:39:00,
2013-03-08 15:44:00,57.2,38.7,29.89,North,0,0.0,0.0,50,0.00,,,0.00,WUHU216HW,2013-03-08 23:44:00,
2013-03-08 15:49:00,57.4,38.9,29.88,North,0,0.0,0.0,50,0.00,,,0.00,WUHU216HW,2013-03-08 23:49:00,
2013-03-08 15:54:00,57.2,38.7,29.88,North,0,0.0,0.0,50,0.00,,,0.00,WUHU216HW,2013-03-08 23:54:00,
2013-03-08 15:59:00,57.2,38.7,29.89,North,0,0.0,0.0,50,0.00,,,0.00,WUHU216HW,2013-03-08 23:59:00,
2013-03-08 16:04:00,57.1,38.7,29.89,North,0,0.0,0.0,50,0.00,,,0.00,WUHU216HW,2013-03-09 00:04:00,
2013-03-08 16:09:00,57.1,38.7,29.89,North,0,0.0,0.0,50,0.00,,,0.00,WUHU216HW,2013-03-09 00:09:00,
2013-03-08 16:14:00,56.6,38.2,29.88,North,0,0.0,0.0,50,0.00,,,0.00,WUHU216HW,2013-03-09 00:14:00,
2013-03-08 16:19:00,56.8,38.9,29.88,North,0,0.0,0.0,51,0.00,,,0.00,WUHU216HW,2013-03-09 00:19:00,
2013-03-08 16:24:00,56.8,38.4,29.89,North,0,0.0,0.0,50,0.00,,,0.00,WUHU216HW,2013-03-09 00:24:00,
2013-03-08 16:29:00,56.8,38.4,29.89,North,0,0.0,0.0,50,0.00,,,0.00,WUHU216HW,2013-03-09 00:29:00,
2013-03-08 16:34:00,57.0,38.5,29.89,North,0,0.0,0.0,50,0.00,,,0.00,WUHU216HW,2013-03-09 00:34:00,
2013-03-08 16:39:00,56.8,38.3,29.89,North,0,0.0,0.0,50,0.00,,,0.00,WUHU216HW,2013-03-09 00:39:00,
2013-03-08 16:44:00,56.6,38.1,29.89,North,0,0.0,0.0,50,0.00,,,0.00,WUHU216HW,2013-03-09 00:44:00,
2013-03-08 16:49:00,56.4,37.9,29.90,North,0,0.0,0.0,50,0.00,,,0.00,WUHU216HW,2013-03-09 00:49:00,
2013-03-08 16:54:00,56.1,38.3,29.90,North,0,0.0,0.0,51,0.00,,,0.00,WUHU216HW,2013-03-09 00:54:00,
2013-03-08 16:59:00,56.0,37.6,29.90,North,0,0.0,0.0,50,0.00,,,0.00,WUHU216HW,2013-03-09 00:59:00,
2013-03-08 17:04:00,55.8,38.0,29.90,North,0,0.0,0.0,51,0.00,,,0.00,WUHU216HW,2013-03-09 01:04:00,
2013-03-08 17:10:00,55.4,37.6,29.90,North,0,0.0,0.0,51,0.00,,,0.00,WUHU216HW,2013-03-09 01:10:00,
2013-03-08 17:15:00,55.2,37.4,29.90,North,0,0.0,0.0,51,0.00,,,0.00,WUHU216HW,2013-03-09 01:15:00,
2013-03-08 17:20:00,55.1,37.3,29.90,North,0,0.0,0.0,51,0.00,,,0.00,WUHU216HW,2013-03-09 01:20:00,
2013-03-08 17:25:00,54.9,37.1,29.90,North,0,0.0,0.0,51,0.00,,,0.00,WUHU216HW,2013-03-09 01:25:00,
2013-03-08 17:30:00,54.5,36.7,29.91,North,0,0.0,0.0,51,0.00,,,0.00,WUHU216HW,2013-03-09 01:30:00,
2013-03-08 17:35:00,54.1,36.4,29.91,North,0,0.0,0.0,51,0.00,,,0.00,WUHU216HW,2013-03-09 01:35:00,
2013-03-08 17:40:00,53.7,35.5,29.91,North,0,0.0,0.0,50,0.00,,,0.00,WUHU216HW,2013-03-09 01:40:00,
2013-03-08 17:45:00,53.3,35.1,29.92,North,0,0.0,0.0,50,0.00,,,0.00,WUHU216HW,2013-03-09 01:45:00,
2013-03-08 17:50:00,53.0,34.8,29.92,North,0,0.0,0.0,50,0.00,,,0.00,WUHU216HW,2013-03-09 01:50:00,
2013-03-08 17:55:00,52.4,33.7,29.92,North,0,0.0,0.0,49,0.00,,,0.00,WUHU216HW,2013-03-09 01:55:00,
2013-03-08 18:00:00,52.1,32.4,29.92,North,0,0.0,0.0,47,0.00,,,0.00,WUHU216HW,2013-03-09 02:00:00,
2013-03-08 18:05:00,51.6,32.0,29.92,North,0,0.0,0.0,47,0.00,,,0.00,WUHU216HW,2013-03-09 02:05:00,
2013-03-08 18:10:00,51.3,31.2,29.93,North,0,0.0,0.0,46,0.00,,,0.00,WUHU216HW,2013-03-09 02:10:00,
2013-03-08 18:16:00,51.1,31.0,29.93,North,0,0.0,0.0,46,0.00,,,0.00,WUHU216HW,2013-03-09 02:16:00,
2013-03-08 18:21:00,50.9,30.8,29.93,North,0,0.0,0.0,46,0.00,,,0.00,WUHU216HW,2013-03-09 02:21:00,
2013-03-08 18:26:00,50.7,30.6,29.94,North,0,0.0,0.0,46,0.00,,,0.00,WUHU216HW,2013-03-09 02:26:00,
2013-03-08 18:31:00,50.5,30.4,29.94,North,0,0.0,0.0,46,0.00,,,0.00,WUHU216HW,2013-03-09 02:31:00,
2013-03-08 18:36:00,50.3,30.2,29.94,North,0,0.0,0.0,46,0.00,,,0.00,WUHU216HW,2013-03-09 02:36:00,
2013-03-08 18:41:00,49.9,29.3,29.94,North,0,0.0,0.0,45,0.00,,,0.00,WUHU216HW,2013-03-09 02:41:00,
2013-03-08 18:46:00,49.7,28.5,29.94,North,0,0.0,0.0,44,0.00,,,0.00,WUHU216HW,2013-03-09 02:46:00,
2013-03-08 18:51:00,49.4,28.2,29.94,North,0,0.0,0.0,44,0.00,,,0.00,WUHU216HW,2013-03-09 02:51:00,
2013-03-08 18:56:00,49.2,28.0,29.95,North,0,0.0,0.0,44,0.00,,,0.00,WUHU216HW,2013-03-09 02:56:00,
2013-03-08 19:01:00,48.7,27.7,29.95,North,0,0.0,0.0,44,0.00,,,0.00,WUHU216HW,2013-03-09 03:01:00,
2013-03-08 19:06:00,48.5,26.9,29.95,North,0,0.0,0.0,43,0.00,,,0.00,WUHU216HW,2013-03-09 03:06:00,
2013-03-08 19:11:00,48.4,26.8,29.95,North,0,0.0,0.0,43,0.00,,,0.00,WUHU216HW,2013-03-09 03:11:00,
2013-03-08 19:16:00,48.2,26.0,29.95,North,0,0.0,0.0,42,0.00,,,0.00,WUHU216HW,2013-03-09 03:16:00,
2013-03-08 19:21:00,47.8,25.0,29.96,North,0,0.0,0.0,41,0.00,,,0.00,WUHU216HW,2013-03-09 03:21:00,
2013-03-08 19:26:00,47.5,24.2,29.96,North,0,0.0,0.0,40,0.00,,,0.00,WUHU216HW,2013-03-09 03:26:00,
2013-03-08 19:31:00,47.5,24.2,29.96,North,0,0.0,0.0,40,0.00,,,0.00,WUHU216HW,2013-03-09 03:31:00,
2013-03-08 19:36:00,47.4,24.1,29.97,North,0,0.0,0.0,40,0.00,,,0.00,WUHU216HW,2013-03-09 03:36:00,
2013-03-08 19:41:00,47.2,23.9,29.97,North,0,0.0,0.0,40,0.00,,,0.00,WUHU216HW,2013-03-09 03:41:00,
2013-03-08 19:47:00,47.2,23.3,29.97,North,0,0.0,0.0,39,0.00,,,0.00,WUHU216HW,2013-03-09 03:47:00,
2013-03-08 19:52:00,46.7,22.9,29.97,North,0,0.0,0.0,39,0.00,,,0.00,WUHU216HW,2013-03-09 03:52:00,
2013-03-08 19:57:00,46.5,22.6,29.97,North,0,0.0,0.0,39,0.00,,,0.00,WUHU216HW,2013-03-09 03:57:00,
2013-03-08 20:02:00,46.1,22.3,29.97,North,0,0.0,0.0,39,0.00,,,0.00,WUHU216HW,2013-03-09 04:02:00,
2013-03-08 20:07:00,45.9,22.1,29.97,North,0,0.0,0.0,39,0.00,,,0.00,WUHU216HW,2013-03-09 04:07:00,
2013-03-08 20:12:00,45.5,21.7,29.97,North,0,0.0,0.0,39,0.00,,,0.00,WUHU216HW,2013-03-09 04:12:00,
2013-03-08 20:17:00,45.3,21.0,29.98,North,0,0.0,0.0,38,0.00,,,0.00,WUHU216HW,2013-03-09 04:17:00,
2013-03-08 20:22:00,45.1,20.1,29.98,North,0,0.0,0.0,37,0.00,,,0.00,WUHU216HW,2013-03-09 04:22:00,
2013-03-08 20:27:00,44.8,18.6,29.98,North,0,0.0,0.0,35,0.00,,,0.00,WUHU216HW,2013-03-09 04:27:00,
2013-03-08 20:32:00,44.6,19.7,29.98,North,0,0.0,0.0,37,0.00,,,0.00,WUHU216HW,2013-03-09 04:32:00,
2013-03-08 20:37:00,44.3,19.5,29.99,North,0,0.0,0.0,37,0.00,,,0.00,WUHU216HW,2013-03-09 04:37:00,
2013-03-08 20:42:00,44.2,19.3,29.99,North,0,0.0,0.0,37,0.00,,,0.00,WUHU216HW,2013-03-09 04:42:00,
2013-03-08 20:48:00,44.2,18.7,29.99,North,0,0.0,0.0,36,0.00,,,0.00,WUHU216HW,2013-03-09 04:48:00,
2013-03-08 20:53:00,44.1,18.0,29.99,North,0,0.0,0.0,35,0.00,,,0.00,WUHU216HW,2013-03-09 04:53:00,
2013-03-08 20:58:00,43.9,17.8,29.99,North,0,0.0,0.0,35,0.00,,,0.00,WUHU216HW,2013-03-09 04:58:00,
2013-03-08 21:00:00,43.9,17.8,29.99,North,0,0.0,0.0,35,0.00,,,0.00,WUHU216HW,2013-03-09 05:00:00,
2013-03-08 21:01:00,43.9,17.8,29.99,North,0,0.0,0.0,35,0.00,,,0.00,WUHU216HW,2013-03-09 05:01:00,
2013-03-08 21:06:00,43.7,17.6,30.00,North,0,0.0,0.0,35,0.00,,,0.00,WUHU216HW,2013-03-09 05:06:00,
2013-03-08 21:11:00,43.3,17.9,30.00,North,0,0.0,0.0,36,0.00,,,0.00,WUHU216HW,2013-03-09 05:11:00,
2013-03-08 21:16:00,42.9,18.2,30.00,North,0,0.0,0.0,37,0.00,,,0.00,WUHU216HW,2013-03-09 05:16:00,
2013-03-08 21:22:00,42.5,17.2,30.01,North,0,0.0,0.0,36,0.00,,,0.00,WUHU216HW,2013-03-09 05:22:00,
2013-03-08 21:27:00,42.3,17.0,30.01,North,0,0.0,0.0,36,0.00,,,0.00,WUHU216HW,2013-03-09 05:27:00,
2013-03-08 21:32:00,42.3,16.3,30.01,North,0,0.0,0.0,35,0.00,,,0.00,WUHU216HW,2013-03-09 05:32:00,
2013-03-08 21:37:00,42.2,14.9,30.01,North,0,0.0,0.0,33,0.00,,,0.00,WUHU216HW,2013-03-09 05:37:00,
2013-03-08 21:42:00,42.0,11.8,30.01,North,0,0.0,0.0,29,0.00,,,0.00,WUHU216HW,2013-03-09 05:42:00,
2013-03-08 21:47:00,41.5,12.2,30.01,North,0,0.0,0.0,30,0.00,,,0.00,WUHU216HW,2013-03-09 05:47:00,
2013-03-08 21:52:00,41.5,12.9,30.02,North,0,0.0,0.0,31,0.00,,,0.00,WUHU216HW,2013-03-09 05:52:00,
2013-03-08 21:57:00,41.5,12.9,30.02,North,0,0.0,0.0,31,0.00,,,0.00,WUHU216HW,2013-03-09 05:57:00,
2013-03-08 22:02:00,41.3,12.7,30.02,North,0,0.0,0.0,31,0.00,,,0.00,WUHU216HW,2013-03-09 06:02:00,
2013-03-08 22:07:00,41.3,11.2,30.02,North,0,0.0,0.0,29,0.00,,,0.00,WUHU216HW,2013-03-09 06:07:00,
2013-03-08 22:12:00,41.2,10.4,30.02,North,0,0.0,0.0,28,0.00,,,0.00,WUHU216HW,2013-03-09 06:12:00,
2013-03-08 22:17:00,41.1,9.5,30.02,North,0,0.0,0.0,27,0.00,,,0.00,WUHU216HW,2013-03-09 06:17:00,
2013-03-08 22:23:00,40.7,7.4,30.02,North,0,0.0,0.0,25,0.00,,,0.00,WUHU216HW,2013-03-09 06:23:00,
2013-03-08 22:28:00,40.3,7.1,30.02,North,0,0.0,0.0,25,0.00,,,0.00,WUHU216HW,2013-03-09 06:28:00,
2013-03-08 22:33:00,40.0,5.9,30.02,North,0,0.0,0.0,24,0.00,,,0.00,WUHU216HW,2013-03-09 06:33:00,
2013-03-08 22:38:00,39.8,8.3,30.02,North,0,0.0,0.0,27,0.00,,,0.00,WUHU216HW,2013-03-09 06:38:00,
2013-03-08 22:43:00,39.8,9.1,30.02,North,0,0.0,0.0,28,0.00,,,0.00,WUHU216HW,2013-03-09 06:43:00,
2013-03-08 22:48:00,39.7,4.8,30.02,North,0,0.0,0.0,23,0.00,,,0.00,WUHU216HW,2013-03-09 06:48:00,
2013-03-08 22:53:00,39.3,4.5,30.02,North,0,0.0,0.0,23,0.00,,,0.00,WUHU216HW,2013-03-09 06:53:00,
2013-03-08 22:58:00,39.2,4.4,30.02,North,0,0.0,0.0,23,0.00,,,0.00,WUHU216HW,2013-03-09 06:58:00,
2013-03-08 23:03:00,38.8,2.1,30.02,North,0,0.0,0.0,21,0.00,,,0.00,WUHU216HW,2013-03-09 07:03:00,
2013-03-08 23:08:00,38.3,0.6,30.03,North,0,0.0,0.0,20,0.00,,,0.00,WUHU216HW,2013-03-09 07:08:00,
2013-03-08 23:13:00,37.9,-0.8,30.04,North,0,0.0,0.0,19,0.00,,,0.00,WUHU216HW,2013-03-09 07:13:00,
2013-03-08 23:19:00,37.8,-3.1,30.04,North,0,0.0,0.0,17,0.00,,,0.00,WUHU216HW,2013-03-09 07:19:00,
2013-03-08 23:24:00,38.0,-3.0,30.04,North,0,0.0,0.0,17,0.00,,,0.00,WUHU216HW,2013-03-09 07:24:00,
2013-03-08 23:29:00,38.2,-2.8,30.04,North,0,0.0,0.0,17,0.00,,,0.00,WUHU216HW,2013-03-09 07:29:00,
2013-03-08 23:34:00,38.2,-2.8,30.04,North,0,0.0,0.0,17,0.00,,,0.00,WUHU216HW,2013-03-09 07:34:00,
2013-03-08 23:39:00,38.5,-1.4,30.04,North,0,0.0,0.0,18,0.00,,,0.00,WUHU216HW,2013-03-09 07:39:00,
2013-03-08 23:44:00,38.5,-1.4,30.04,North,0,0.0,0.0,18,0.00,,,0.00,WUHU216HW,2013-03-09 07:44:00,
2013-03-08 23:49:00,38.7,1.0,30.04,North,0,0.0,0.0,20,0.00,,,0.00,WUHU216HW,2013-03-09 07:49:00,
2013-03-08 23:54:00,38.3,0.6,30.04,North,0,0.0,0.0,20,0.00,,,0.00,WUHU216HW,2013-03-09 07:54:00,
2013-03-08 23:59:00,38.2,-1.7,30.04,North,0,0.0,0.0,18,0.00,,,0.00,WUHU216HW,2013-03-09 07:59:00,